Time;durP1;ratioP1;P1;durP2;ratioP2;P2;SDS_P1;SDS_P2;PMS_P1;PMS_P2;Temp;Humidity;BMP_temperature;BMP_pressure;BME280_temperature;BME280_humidity;BME280_pressure;Samples;Min_cycle;Max_cycle;Signal;HPM_P1;HPM_P2
2022/11/23 00:02:16;;;;;;;6.43;4.00;;;3.90;99.90;;;;;;5040986;28;20633;-84
2022/11/23 00:04:44;;;;;;;8.50;3.80;;;3.80;99.90;;;;;;5046900;28;20621;-85
2022/11/23 00:07:11;;;;;;;13.57;4.00;;;3.30;99.90;;;;;;5033317;28;20618;-85
2022/11/23 00:09:38;;;;;;;11.50;4.43;;;3.40;99.90;;;;;;5038881;28;20671;-85
2022/11/23 00:12:05;;;;;;;7.43;4.00;;;3.80;99.90;;;;;;5045009;28;20626;-85
2022/11/23 00:14:32;;;;;;;4.50;3.70;;;3.80;99.90;;;;;;5038598;28;20737;-85
2022/11/23 00:16:59;;;;;;;6.67;3.37;;;4.00;99.90;;;;;;5011984;28;1041063;-85
2022/11/23 00:19:25;;;;;;;7.93;3.50;;;3.80;99.90;;;;;;5034863;28;20204;-85
2022/11/23 00:21:54;;;;;;;4.80;4.30;;;3.70;99.90;;;;;;5047700;28;21202;-85
2022/11/23 00:24:20;;;;;;;9.07;4.17;;;3.80;99.90;;;;;;5050092;28;20621;-85
2022/11/23 00:26:47;;;;;;;6.83;3.40;;;3.50;99.90;;;;;;5043188;28;20677;-85
2022/11/23 00:29:14;;;;;;;8.63;3.63;;;3.50;99.90;;;;;;5045022;28;20641;-85
2022/11/23 00:31:40;;;;;;;6.47;3.80;;;3.80;99.90;;;;;;5046145;28;20997;-85
2022/11/23 00:34:07;;;;;;;6.07;4.50;;;3.70;99.90;;;;;;5038707;28;20623;-85
2022/11/23 00:36:34;;;;;;;5.80;4.10;;;3.60;99.90;;;;;;5044753;28;21029;-85
2022/11/23 00:39:02;;;;;;;7.77;3.93;;;3.60;99.90;;;;;;5039788;28;20629;-85
2022/11/23 00:41:29;;;;;;;7.53;4.33;;;3.40;99.90;;;;;;5038891;28;20658;-85
2022/11/23 00:43:56;;;;;;;5.53;3.07;;;3.30;99.90;;;;;;5045345;28;20637;-85
2022/11/23 00:46:24;;;;;;;6.13;4.07;;;3.30;99.90;;;;;;5034428;28;20636;-85
2022/11/23 00:48:53;;;;;;;5.90;3.10;;;3.30;99.90;;;;;;5039726;28;20658;-85
2022/11/23 00:51:22;;;;;;;6.07;3.13;;;2.90;99.90;;;;;;5040276;28;20617;-85
2022/11/23 00:53:50;;;;;;;9.17;3.10;;;3.40;99.90;;;;;;5031341;28;20999;-85
2022/11/23 00:56:18;;;;;;;6.93;3.00;;;3.50;99.90;;;;;;5040389;28;20684;-85
2022/11/23 00:58:48;;;;;;;4.57;3.10;;;3.70;99.90;;;;;;5040924;28;21088;-85
2022/11/23 01:01:17;;;;;;;6.30;3.20;;;3.60;99.90;;;;;;5038420;28;20606;-85
2022/11/23 01:03:49;;;;;;;4.97;3.07;;;3.70;99.90;;;;;;5039946;28;20633;-85
2022/11/23 01:06:17;;;;;;;6.47;3.30;;;3.90;99.90;;;;;;5042294;28;20629;-84
2022/11/23 01:08:48;;;;;;;7.63;3.43;;;3.90;99.90;;;;;;5040903;28;20702;-85
2022/11/23 01:11:15;;;;;;;10.93;2.83;;;3.40;99.90;;;;;;5047530;28;20633;-85
2022/11/23 01:13:43;;;;;;;6.27;3.50;;;4.20;99.90;;;;;;5042263;28;20627;-85
2022/11/23 01:16:15;;;;;;;13.80;4.57;;;3.70;99.90;;;;;;5029840;28;21083;-85
2022/11/23 01:18:42;;;;;;;8.10;2.80;;;3.60;99.90;;;;;;5036421;28;20655;-85
2022/11/23 01:21:09;;;;;;;3.80;2.43;;;4.20;99.90;;;;;;5030465;28;20644;-85
2022/11/23 01:23:36;;;;;;;4.37;2.63;;;4.20;99.90;;;;;;5047980;28;20625;-85
2022/11/23 01:26:07;;;;;;;3.67;3.13;;;4.40;99.90;;;;;;5044468;28;20998;-85
2022/11/23 01:28:34;;;;;;;5.63;2.80;;;4.50;99.90;;;;;;5037291;28;20646;-85
2022/11/23 01:31:07;;;;;;;6.70;3.27;;;4.20;99.90;;;;;;5039938;28;20999;-85
2022/11/23 01:33:35;;;;;;;4.47;3.30;;;4.60;99.90;;;;;;5041467;28;20639;-85
2022/11/23 01:36:01;;;;;;;3.50;3.10;;;4.60;99.90;;;;;;5045449;28;21200;-85
2022/11/23 01:38:28;;;;;;;3.70;3.10;;;4.30;99.90;;;;;;5042450;28;20655;-85
2022/11/23 01:40:55;;;;;;;5.50;3.20;;;4.50;99.90;;;;;;5038576;28;20644;-85
2022/11/23 01:43:22;;;;;;;6.63;3.63;;;4.50;99.90;;;;;;5039501;28;20634;-84
2022/11/23 01:45:59;;;;;;;7.27;3.47;;;4.40;99.90;;;;;;5043397;28;20629;-85
2022/11/23 01:48:33;;;;;;;6.70;2.50;;;4.40;99.90;;;;;;5033620;28;20721;-85
2022/11/23 01:51:04;;;;;;;5.33;3.03;;;4.50;99.90;;;;;;5039617;28;21492;-85
2022/11/23 01:53:32;;;;;;;6.80;3.27;;;4.50;99.90;;;;;;5041270;28;20633;-85
2022/11/23 01:56:01;;;;;;;9.37;2.90;;;4.40;99.90;;;;;;5040594;28;20635;-86
2022/11/23 01:58:31;;;;;;;5.50;4.33;;;4.50;99.90;;;;;;5034789;28;20670;-85
2022/11/23 02:00:58;;;;;;;7.60;3.20;;;4.50;99.90;;;;;;5044439;28;20641;-86
2022/11/23 02:03:28;;;;;;;5.40;3.47;;;4.50;99.90;;;;;;5041950;28;20746;-85
2022/11/23 02:06:00;;;;;;;7.37;3.57;;;4.40;99.90;;;;;;5044302;28;20641;-85
2022/11/23 02:08:28;;;;;;;5.20;3.80;;;4.40;99.90;;;;;;5042259;28;20630;-85
2022/11/23 02:10:56;;;;;;;5.93;4.50;;;4.20;99.90;;;;;;5045995;28;20623;-85
2022/11/23 02:13:24;;;;;;;7.23;3.67;;;4.10;99.90;;;;;;5036723;28;21122;-85
2022/11/23 02:15:52;;;;;;;7.33;4.30;;;4.10;99.90;;;;;;5034244;28;20650;-85
2022/11/23 02:18:22;;;;;;;7.97;4.73;;;4.20;99.90;;;;;;5035066;28;20673;-85
2022/11/23 02:20:51;;;;;;;9.20;4.53;;;3.60;99.90;;;;;;5029662;28;20634;-85
2022/11/23 02:23:28;;;;;;;6.07;4.37;;;4.40;99.90;;;;;;5035346;28;20642;-84
2022/11/23 02:26:00;;;;;;;8.50;4.70;;;4.40;99.90;;;;;;5028558;28;20622;-85
2022/11/23 02:28:31;;;;;;;7.07;4.13;;;4.10;99.90;;;;;;5035382;28;20688;-85
2022/11/23 02:30:58;;;;;;;7.00;4.60;;;4.10;99.90;;;;;;5042165;28;20617;-85
2022/11/23 02:33:24;;;;;;;7.90;4.90;;;3.90;99.90;;;;;;5039334;28;20618;-85
2022/11/23 02:35:53;;;;;;;7.40;4.73;;;3.90;99.90;;;;;;5039162;28;20638;-85
2022/11/23 02:38:21;;;;;;;6.87;4.47;;;3.80;99.90;;;;;;5038150;28;20698;-84
2022/11/23 02:40:47;;;;;;;6.43;4.27;;;3.90;99.90;;;;;;5032069;28;20630;-85
2022/11/23 02:43:16;;;;;;;8.50;4.20;;;3.80;99.90;;;;;;5038594;28;20632;-84
2022/11/23 02:45:49;;;;;;;12.47;4.40;;;3.70;99.90;;;;;;5035480;28;20617;-85
2022/11/23 02:48:16;;;;;;;8.70;4.30;;;3.60;99.90;;;;;;5044653;28;20629;-85
2022/11/23 02:50:43;;;;;;;5.50;3.93;;;3.50;99.90;;;;;;5044114;28;20634;-85
2022/11/23 02:53:10;;;;;;;5.70;4.27;;;3.00;99.90;;;;;;5028196;28;20682;-84
2022/11/23 02:55:37;;;;;;;6.93;4.80;;;3.20;99.90;;;;;;5041293;28;20630;-85
2022/11/23 02:58:05;;;;;;;6.60;4.10;;;3.30;99.90;;;;;;5042916;28;20663;-85
2022/11/23 03:00:34;;;;;;;6.37;4.13;;;2.80;99.90;;;;;;5028562;28;20662;-85
2022/11/23 03:03:01;;;;;;;5.83;4.13;;;3.50;99.90;;;;;;5041382;28;20622;-85
2022/11/23 03:05:28;;;;;;;7.73;4.43;;;3.10;99.90;;;;;;5037991;28;20630;-85
2022/11/23 03:07:55;;;;;;;9.30;4.30;;;3.30;99.90;;;;;;5039275;28;20625;-85
2022/11/23 03:10:22;;;;;;;6.63;4.07;;;3.20;99.90;;;;;;5029834;28;21271;-84
2022/11/23 03:12:49;;;;;;;7.33;3.90;;;3.30;99.90;;;;;;5046067;28;20625;-85
2022/11/23 03:15:15;;;;;;;6.37;3.90;;;3.10;99.90;;;;;;5031838;28;20633;-85
2022/11/23 03:17:43;;;;;;;5.77;4.13;;;2.90;99.90;;;;;;5039395;28;20665;-84
2022/11/23 03:20:11;;;;;;;10.20;4.70;;;3.00;99.90;;;;;;5045926;28;21029;-84
2022/11/23 03:22:38;;;;;;;6.23;3.90;;;3.00;99.90;;;;;;5038694;28;20637;-84
2022/11/23 03:25:05;;;;;;;7.43;3.93;;;2.60;99.90;;;;;;5037461;28;20641;-85
2022/11/23 03:27:33;;;;;;;10.03;5.63;;;2.90;99.90;;;;;;5043275;28;20622;-85
2022/11/23 03:30:00;;;;;;;10.77;5.47;;;2.90;99.90;;;;;;5041938;28;21243;-85
2022/11/23 03:32:27;;;;;;;9.63;4.10;;;2.80;99.90;;;;;;5048830;28;20643;-85
2022/11/23 03:34:55;;;;;;;7.97;3.47;;;2.80;99.90;;;;;;5043250;28;20722;-85
2022/11/23 03:37:23;;;;;;;9.30;5.20;;;2.80;99.90;;;;;;5037832;28;20700;-85
2022/11/23 03:39:49;;;;;;;7.57;5.10;;;2.80;99.90;;;;;;5039261;28;20661;-84
2022/11/23 03:42:16;;;;;;;6.90;4.30;;;2.90;99.90;;;;;;5035386;28;20634;-85
2022/11/23 03:44:43;;;;;;;9.73;6.27;;;3.10;99.90;;;;;;5046532;28;20636;-85
2022/11/23 03:47:10;;;;;;;12.20;6.93;;;3.20;99.90;;;;;;5031831;28;20629;-84
2022/11/23 03:49:37;;;;;;;10.03;6.30;;;3.00;99.90;;;;;;5037921;28;20664;-85
2022/11/23 03:52:05;;;;;;;10.50;4.80;;;3.10;99.90;;;;;;5039220;28;20636;-85
2022/11/23 03:54:32;;;;;;;11.20;5.10;;;2.80;99.90;;;;;;5044992;28;21004;-85
2022/11/23 03:56:59;;;;;;;10.50;4.40;;;3.40;99.90;;;;;;5038079;28;20637;-85
2022/11/23 03:59:25;;;;;;;5.60;4.60;;;3.30;99.90;;;;;;5036129;28;21038;-85
2022/11/23 04:01:52;;;;;;;6.40;4.30;;;3.50;99.90;;;;;;5047669;28;20633;-85
2022/11/23 04:04:20;;;;;;;11.10;4.50;;;3.40;99.90;;;;;;5031165;28;21093;-85
2022/11/23 04:06:46;;;;;;;10.33;4.10;;;3.50;99.90;;;;;;5042135;28;20629;-84
2022/11/23 04:09:15;;;;;;;4.90;3.33;;;3.60;99.90;;;;;;5038639;28;20647;-85
2022/11/23 04:11:42;;;;;;;5.90;3.30;;;3.60;99.90;;;;;;5047069;28;20625;-84
2022/11/23 04:14:08;;;;;;;6.50;2.70;;;3.40;99.90;;;;;;5040817;28;21402;-85
2022/11/23 04:16:35;;;;;;;3.97;2.97;;;3.90;99.90;;;;;;5035234;28;20622;-85
2022/11/23 04:19:02;;;;;;;4.93;2.60;;;4.00;99.90;;;;;;5047421;28;20692;-84
2022/11/23 04:21:29;;;;;;;4.63;3.00;;;3.80;99.90;;;;;;5034035;28;20630;-85
2022/11/23 04:23:55;;;;;;;5.60;3.37;;;3.90;99.90;;;;;;5039491;28;20638;-85
2022/11/23 04:26:23;;;;;;;6.43;4.80;;;4.00;99.90;;;;;;5039262;28;20629;-85
2022/11/23 04:28:50;;;;;;;3.80;2.57;;;4.00;99.90;;;;;;5048731;28;20641;-85
2022/11/23 04:31:17;;;;;;;7.33;3.20;;;4.10;99.90;;;;;;5042264;28;21180;-85
2022/11/23 04:33:43;;;;;;;5.80;3.10;;;4.20;99.90;;;;;;5038671;28;20667;-85
2022/11/23 04:36:10;;;;;;;6.47;3.47;;;4.30;99.90;;;;;;5040214;28;20633;-85
2022/11/23 04:38:37;;;;;;;5.30;3.90;;;4.40;99.90;;;;;;5049237;28;20677;-85
2022/11/23 04:41:04;;;;;;;8.07;5.10;;;4.30;99.90;;;;;;5030655;28;20630;-86
2022/11/23 04:43:32;;;;;;;6.37;4.40;;;4.10;99.90;;;;;;5035779;28;20626;-86
2022/11/23 04:45:59;;;;;;;9.03;4.40;;;4.40;99.90;;;;;;5040007;28;20639;-84
2022/11/23 04:48:25;;;;;;;13.33;5.70;;;4.20;99.90;;;;;;5035128;28;21061;-85
2022/11/23 04:50:52;;;;;;;5.20;3.70;;;4.40;99.90;;;;;;5030298;28;21197;-85
2022/11/23 04:53:19;;;;;;;5.90;4.60;;;4.50;99.90;;;;;;5032456;28;20628;-85
2022/11/23 04:55:46;;;;;;;9.33;4.73;;;4.40;99.90;;;;;;5028466;28;20634;-85
2022/11/23 04:58:13;;;;;;;7.13;4.30;;;4.40;99.90;;;;;;5048609;28;20657;-84
2022/11/23 05:00:41;;;;;;;9.33;5.43;;;4.30;99.90;;;;;;5037037;28;20627;-85
2022/11/23 05:03:08;;;;;;;9.67;6.23;;;4.30;99.90;;;;;;5039140;28;20675;-85
2022/11/23 05:05:37;;;;;;;8.50;6.00;;;4.30;99.90;;;;;;5050132;28;20634;-85
2022/11/23 05:08:04;;;;;;;6.80;5.43;;;4.20;99.90;;;;;;5041698;28;20630;-85
2022/11/23 05:10:31;;;;;;;7.43;4.90;;;4.20;99.90;;;;;;5044619;28;21342;-86
2022/11/23 05:12:58;;;;;;;7.33;4.87;;;4.20;99.90;;;;;;5038899;28;20633;-84
2022/11/23 05:15:25;;;;;;;7.00;5.37;;;3.70;99.90;;;;;;5036192;28;20634;-85
2022/11/23 05:17:54;;;;;;;5.83;5.30;;;4.20;99.90;;;;;;5046536;28;20670;-85
2022/11/23 05:20:21;;;;;;;5.87;5.27;;;4.00;99.90;;;;;;5047516;28;20645;-83
2022/11/23 05:22:48;;;;;;;6.10;5.57;;;4.10;99.90;;;;;;5038461;28;20722;-85
2022/11/23 05:25:14;;;;;;;5.87;4.60;;;3.70;99.90;;;;;;5050046;28;20617;-84
2022/11/23 05:27:41;;;;;;;6.30;4.43;;;3.70;99.90;;;;;;5043725;28;20617;-85
2022/11/23 05:30:09;;;;;;;6.50;5.10;;;3.70;99.90;;;;;;5034763;28;20645;-83
2022/11/23 05:32:35;;;;;;;5.50;4.33;;;3.60;99.90;;;;;;5050408;28;20618;-84
2022/11/23 05:35:05;;;;;;;6.43;4.40;;;3.60;99.90;;;;;;5044393;28;21200;-84
2022/11/23 05:37:33;;;;;;;5.20;3.90;;;3.60;99.90;;;;;;5040489;28;20693;-84
2022/11/23 05:40:00;;;;;;;5.57;3.40;;;3.80;99.90;;;;;;5040932;28;20660;-84
2022/11/23 05:42:27;;;;;;;5.57;2.90;;;3.80;99.90;;;;;;5047918;28;21042;-84
2022/11/23 05:44:54;;;;;;;5.90;3.40;;;3.70;99.90;;;;;;5036167;28;20641;-84
2022/11/23 05:47:21;;;;;;;7.30;3.50;;;3.50;99.90;;;;;;5042251;28;21188;-85
2022/11/23 05:49:48;;;;;;;5.33;3.20;;;3.30;99.90;;;;;;5042037;28;21081;-84
2022/11/23 05:52:16;;;;;;;4.43;3.07;;;3.60;99.90;;;;;;5043781;28;21220;-85
2022/11/23 05:54:44;;;;;;;6.13;3.00;;;3.30;99.90;;;;;;5038874;28;20997;-84
2022/11/23 05:57:14;;;;;;;3.17;2.60;;;3.40;99.90;;;;;;5036485;28;20644;-84
2022/11/23 05:59:41;;;;;;;5.07;2.33;;;3.50;99.90;;;;;;5038665;28;20679;-84
2022/11/23 06:02:08;;;;;;;3.23;2.43;;;3.60;99.90;;;;;;5039581;28;20626;-85
2022/11/23 06:04:35;;;;;;;3.93;2.70;;;3.70;99.90;;;;;;5036605;28;20622;-84
2022/11/23 06:07:02;;;;;;;6.90;2.37;;;3.50;99.90;;;;;;5038189;28;21156;-85
2022/11/23 06:09:30;;;;;;;4.93;2.43;;;3.60;99.90;;;;;;5047572;28;20660;-84
2022/11/23 06:11:57;;;;;;;6.10;3.20;;;3.70;99.90;;;;;;5047161;28;20626;-85
2022/11/23 06:14:24;;;;;;;7.63;2.80;;;3.50;99.90;;;;;;5031698;28;20639;-85
2022/11/23 06:16:51;;;;;;;10.50;2.40;;;3.70;99.90;;;;;;5030759;28;20635;-85
2022/11/23 06:19:18;;;;;;;5.70;3.50;;;3.60;99.90;;;;;;5032898;28;20681;-85
2022/11/23 06:21:45;;;;;;;9.10;3.57;;;3.80;99.90;;;;;;5034161;28;20665;-85
2022/11/23 06:24:12;;;;;;;5.43;3.70;;;4.00;99.90;;;;;;5046640;28;20637;-84
2022/11/23 06:26:40;;;;;;;6.03;4.13;;;3.90;99.90;;;;;;5038604;28;20634;-85
2022/11/23 06:29:07;;;;;;;10.77;3.93;;;3.80;99.90;;;;;;5037765;28;20721;-85
2022/11/23 06:31:33;;;;;;;7.93;3.47;;;4.00;99.90;;;;;;5033029;28;20630;-85
2022/11/23 06:34:00;;;;;;;6.93;3.90;;;3.80;99.90;;;;;;5044814;28;21230;-85
2022/11/23 06:36:27;;;;;;;5.17;3.00;;;3.80;99.90;;;;;;5043648;28;20626;-85
2022/11/23 06:38:55;;;;;;;5.33;3.20;;;3.70;99.90;;;;;;5043851;28;21066;-85
2022/11/23 06:41:23;;;;;;;6.20;3.03;;;4.00;99.90;;;;;;5041234;28;20628;-85
2022/11/23 06:43:51;;;;;;;4.93;2.70;;;3.70;99.90;;;;;;5044886;28;20629;-86
2022/11/23 06:46:18;;;;;;;6.33;3.20;;;4.00;99.90;;;;;;5039648;28;21199;-85
2022/11/23 06:48:46;;;;;;;3.47;2.70;;;3.60;99.90;;;;;;5045896;28;20650;-84
2022/11/23 06:51:14;;;;;;;5.17;2.93;;;3.80;99.90;;;;;;5035572;28;20626;-85
2022/11/23 06:53:41;;;;;;;4.37;2.93;;;3.20;99.90;;;;;;5031124;28;20627;-85
2022/11/23 06:56:09;;;;;;;3.70;2.90;;;3.70;99.90;;;;;;5030597;28;20717;-85
2022/11/23 06:58:36;;;;;;;4.40;3.30;;;3.50;99.90;;;;;;5037258;28;20678;-84
2022/11/23 07:01:07;;;;;;;7.00;4.80;;;3.30;99.90;;;;;;5038019;28;20638;-85
2022/11/23 07:03:34;;;;;;;9.00;5.40;;;3.50;99.90;;;;;;5031501;28;20623;-84
2022/11/23 07:06:05;;;;;;;13.83;6.03;;;3.30;99.90;;;;;;5042349;28;21014;-84
2022/11/23 07:08:31;;;;;;;11.37;5.23;;;3.40;99.90;;;;;;5036531;28;20623;-84
2022/11/23 07:11:01;;;;;;;8.93;4.10;;;3.70;99.90;;;;;;5041651;28;20634;-84
2022/11/23 07:13:27;;;;;;;12.67;4.80;;;3.60;99.90;;;;;;5043780;28;21325;-85
2022/11/23 07:15:54;;;;;;;7.33;4.47;;;3.60;99.90;;;;;;5045834;28;20688;-86
2022/11/23 07:18:22;;;;;;;6.77;4.30;;;3.10;99.90;;;;;;5048417;28;20669;-86
2022/11/23 07:20:49;;;;;;;8.27;5.10;;;3.30;99.90;;;;;;5051492;28;20634;-86
2022/11/23 07:23:16;;;;;;;7.43;6.00;;;3.60;99.90;;;;;;5049207;28;20768;-85
2022/11/23 07:25:43;;;;;;;7.20;5.33;;;3.50;99.90;;;;;;5041809;28;21286;-85
2022/11/23 07:28:12;;;;;;;10.47;6.00;;;3.60;99.90;;;;;;5055925;28;20678;-85
2022/11/23 07:30:39;;;;;;;9.40;5.70;;;3.60;99.90;;;;;;5052304;28;20634;-85
2022/11/23 07:33:09;;;;;;;7.60;6.33;;;3.60;99.90;;;;;;5048422;28;21434;-86
2022/11/23 07:35:38;;;;;;;7.80;5.77;;;3.70;99.90;;;;;;5049722;28;20660;-86
2022/11/23 07:38:06;;;;;;;8.30;6.47;;;3.10;99.90;;;;;;5052562;28;21398;-85
2022/11/23 07:40:34;;;;;;;13.23;7.10;;;3.60;99.90;;;;;;5051095;28;20644;-86
2022/11/23 07:43:01;;;;;;;7.73;5.53;;;3.80;99.90;;;;;;5047720;28;20645;-86
2022/11/23 07:45:28;;;;;;;7.00;5.37;;;3.80;99.90;;;;;;5045287;28;20660;-85
2022/11/23 07:47:59;;;;;;;7.37;5.53;;;3.60;99.90;;;;;;5049771;28;20645;-86
2022/11/23 07:50:26;;;;;;;12.60;5.87;;;3.80;99.90;;;;;;5049740;28;21566;-86
2022/11/23 07:52:54;;;;;;;9.67;6.80;;;3.90;99.90;;;;;;5050178;28;20621;-86
2022/11/23 07:55:22;;;;;;;10.67;8.83;;;3.70;99.90;;;;;;5050219;28;20656;-85
2022/11/23 07:57:52;;;;;;;14.07;9.17;;;4.00;99.90;;;;;;5050227;28;20649;-85
2022/11/23 08:00:19;;;;;;;10.80;7.50;;;3.80;99.90;;;;;;5056602;28;20666;-84
2022/11/23 08:02:46;;;;;;;9.90;6.80;;;3.90;99.90;;;;;;5052516;28;20637;-85
2022/11/23 08:05:13;;;;;;;9.00;5.97;;;4.10;99.90;;;;;;5040167;28;21160;-85
2022/11/23 08:07:41;;;;;;;9.80;5.93;;;3.90;99.90;;;;;;5042601;28;20631;-85
2022/11/23 08:10:10;;;;;;;8.30;6.17;;;4.00;99.90;;;;;;5032093;28;20653;-85
2022/11/23 08:12:36;;;;;;;14.20;6.50;;;4.20;99.90;;;;;;5039129;28;21138;-84
2022/11/23 08:15:04;;;;;;;10.43;6.50;;;4.30;99.90;;;;;;5039549;28;20629;-84
2022/11/23 08:17:31;;;;;;;6.67;5.97;;;4.20;99.90;;;;;;5049674;28;20649;-85
2022/11/23 08:19:57;;;;;;;13.80;11.13;;;4.40;99.90;;;;;;5047347;28;20666;-84
2022/11/23 08:22:25;;;;;;;8.37;6.87;;;4.60;99.90;;;;;;5043545;28;20982;-85
2022/11/23 08:24:52;;;;;;;12.07;5.80;;;4.60;99.90;;;;;;5046145;28;20630;-85
2022/11/23 08:27:21;;;;;;;8.00;6.33;;;4.70;99.90;;;;;;5041394;28;20665;-84
2022/11/23 08:29:47;;;;;;;8.90;6.50;;;4.90;99.90;;;;;;5045911;28;20629;-85
2022/11/23 08:32:14;;;;;;;9.30;4.90;;;5.10;99.90;;;;;;5039372;28;20641;-85
2022/11/23 08:34:43;;;;;;;11.97;5.87;;;5.10;99.90;;;;;;5040438;28;20631;-85
2022/11/23 08:37:10;;;;;;;8.77;5.20;;;5.30;99.90;;;;;;5040787;28;21232;-85
2022/11/23 08:39:37;;;;;;;9.47;5.63;;;5.40;99.90;;;;;;5045455;28;20666;-85
2022/11/23 08:42:04;;;;;;;7.93;5.00;;;5.30;99.90;;;;;;5048097;28;20680;-85
2022/11/23 08:44:32;;;;;;;12.77;5.67;;;5.70;99.90;;;;;;5041541;28;20631;-85
2022/11/23 08:47:00;;;;;;;5.13;3.60;;;5.80;99.90;;;;;;5042470;28;21054;-84
2022/11/23 08:49:27;;;;;;;6.13;4.20;;;5.60;99.90;;;;;;5043336;28;20665;-84
2022/11/23 08:51:54;;;;;;;6.23;3.80;;;6.00;99.90;;;;;;5049930;28;20671;-84
2022/11/23 08:54:23;;;;;;;5.10;3.93;;;6.00;99.90;;;;;;5048105;28;20638;-85
2022/11/23 08:56:50;;;;;;;5.60;3.80;;;6.10;99.90;;;;;;5041818;28;20664;-85
2022/11/23 08:59:17;;;;;;;5.27;4.00;;;6.10;99.90;;;;;;5041997;28;21053;-85
2022/11/23 09:01:46;;;;;;;7.37;4.10;;;6.10;99.90;;;;;;5040636;28;20732;-84
2022/11/23 09:04:13;;;;;;;6.00;3.60;;;6.40;99.90;;;;;;5039383;28;20636;-86
2022/11/23 09:06:40;;;;;;;8.13;3.77;;;6.20;99.90;;;;;;5034362;28;20630;-85
2022/11/23 09:09:07;;;;;;;5.93;3.13;;;6.60;99.90;;;;;;5031165;28;20660;-85
2022/11/23 09:11:33;;;;;;;8.87;3.47;;;7.10;99.90;;;;;;5048579;28;20629;-85
2022/11/23 09:14:00;;;;;;;4.73;3.80;;;7.10;93.30;;;;;;5040626;28;20626;-84
2022/11/23 09:16:27;;;;;;;6.73;2.83;;;7.30;70.60;;;;;;5041670;28;20651;-86
2022/11/23 09:18:57;;;;;;;6.37;3.10;;;7.40;1.00;;;;;;5029569;28;20674;-85
2022/11/23 09:21:28;;;;;;;8.80;3.80;;;7.70;1.00;;;;;;5041814;28;20645;-85
2022/11/23 09:23:56;;;;;;;5.83;3.83;;;8.10;1.00;;;;;;5046361;28;20695;-84
2022/11/23 09:26:24;;;;;;;4.37;3.07;;;8.20;1.00;;;;;;5035550;28;20635;-84
2022/11/23 09:28:51;;;;;;;6.43;3.10;;;8.40;1.00;;;;;;5047819;28;20648;-84
2022/11/23 09:31:17;;;;;;;7.63;3.50;;;8.50;99.90;;;;;;5049724;28;20646;-84
2022/11/23 09:33:44;;;;;;;4.83;2.67;;;9.00;99.90;;;;;;5071037;28;20705;-84
2022/11/23 09:36:12;;;;;;;5.30;3.33;;;8.40;1.00;;;;;;5072151;28;20694;-85
2022/11/23 09:38:39;;;;;;;5.97;3.03;;;8.70;99.90;;;;;;5047640;28;20729;-85
2022/11/23 09:41:31;;;;;;;5.67;3.10;;;9.30;1.00;;;;;;5038120;28;20938;-85
2022/11/23 09:44:06;;;;;;;3.03;2.73;;;10.00;99.90;;;;;;5043329;28;20722;-87
2022/11/23 09:46:40;;;;;;;3.90;3.13;;;9.80;99.90;;;;;;5042724;28;20617;-85
2022/11/23 09:49:15;;;;;;;4.90;2.97;;;10.00;1.00;;;;;;5046978;28;20621;-85
2022/11/23 09:51:45;;;;;;;6.57;3.10;;;10.20;99.90;;;;;;5042716;28;20641;-84
2022/11/23 09:54:23;;;;;;;5.40;3.20;;;11.00;99.90;;;;;;5047671;28;20606;-85
2022/11/23 09:56:53;;;;;;;4.73;2.97;;;11.50;1.00;;;;;;5048902;28;20653;-85
2022/11/23 09:59:36;;;;;;;6.13;2.97;;;11.20;1.00;;;;;;5044557;28;21228;-85
2022/11/23 10:02:03;;;;;;;8.10;3.27;;;12.40;99.90;;;;;;5040231;28;20637;-85
2022/11/23 10:04:34;;;;;;;4.30;3.90;;;11.50;99.90;;;;;;5035421;28;20649;-85
2022/11/23 10:07:12;;;;;;;5.67;4.13;;;12.90;1.00;;;;;;5038744;28;20673;-86
2022/11/23 10:09:47;;;;;;;4.20;3.53;;;13.60;1.00;;;;;;5038647;28;20680;-86
2022/11/23 10:12:26;;;;;;;5.00;2.67;;;13.40;1.00;;;;;;5046269;28;20636;-85
2022/11/23 10:15:18;;;;;;;3.50;2.40;;;13.80;1.00;;;;;;5039878;28;20633;-85
2022/11/23 10:18:01;;;;;;;2.53;2.33;;;13.50;99.90;;;;;;5036261;28;20760;-86
2022/11/23 10:20:43;;;;;;;4.00;2.50;;;13.10;1.00;;;;;;5046327;28;20669;-86
2022/11/23 10:23:18;;;;;;;4.73;3.10;;;15.10;99.90;;;;;;5041914;28;20647;-86
2022/11/23 10:25:48;;;;;;;5.50;2.60;;;14.60;99.90;;;;;;5043120;28;20630;-86
2022/11/23 10:28:17;;;;;;;6.33;3.33;;;15.40;99.90;;;;;;5036051;28;21234;-88
2022/11/23 10:30:55;;;;;;;4.70;3.03;;;16.70;90.90;;;;;;5036129;28;20629;-86
2022/11/23 10:33:29;;;;;;;5.03;2.80;;;14.70;99.90;;;;;;5026841;28;20642;-86
2022/11/23 10:35:57;;;;;;;4.03;2.63;;;14.20;99.90;;;;;;5038937;28;20657;-86
2022/11/23 10:38:27;;;;;;;4.57;2.57;;;13.60;99.90;;;;;;5039416;28;20662;-86
2022/11/23 10:41:02;;;;;;;5.67;2.90;;;13.60;99.90;;;;;;5042655;28;21045;-86
2022/11/23 10:43:34;;;;;;;3.87;2.20;;;14.00;99.90;;;;;;5044727;28;20641;-86
2022/11/23 10:46:30;;;;;;;4.87;2.60;;;15.30;99.90;;;;;;5039762;28;20641;-86
2022/11/23 10:49:10;;;;;;;4.23;2.90;;;15.90;86.70;;;;;;5044980;28;20638;-86
2022/11/23 10:51:37;;;;;;;4.27;2.33;;;16.30;69.40;;;;;;5029173;28;21167;-86
2022/11/23 10:54:17;;;;;;;4.50;2.90;;;17.00;41.90;;;;;;5048171;28;20636;-86
2022/11/23 10:56:46;;;;;;;5.47;2.90;;;17.80;42.00;;;;;;5044134;28;20702;-86
2022/11/23 10:59:30;;;;;;;5.60;2.60;;;17.20;22.30;;;;;;5039207;28;20667;-86
2022/11/23 11:02:17;;;;;;;4.47;2.70;;;15.90;61.20;;;;;;5043976;28;20649;-87
2022/11/23 11:04:45;;;;;;;4.73;2.60;;;17.60;25.70;;;;;;5044883;28;21075;-86
2022/11/23 11:07:22;;;;;;;5.17;3.17;;;15.30;57.70;;;;;;5036818;28;20670;-86
2022/11/23 11:09:52;;;;;;;4.97;3.10;;;16.10;84.10;;;;;;5043744;28;21471;-86
2022/11/23 11:12:19;;;;;;;5.60;2.73;;;16.10;37.70;;;;;;5042180;28;20630;-86
2022/11/23 11:15:05;;;;;;;3.50;2.70;;;16.40;42.20;;;;;;5046041;28;20622;-87
2022/11/23 11:17:34;;;;;;;6.33;2.90;;;18.00;17.50;;;;;;5037768;28;20654;-87
2022/11/23 11:20:21;;;;;;;3.17;2.63;;;16.00;4.70;;;;;;5039901;28;20679;-86
2022/11/23 11:22:48;;;;;;;3.50;2.53;;;14.20;99.90;;;;;;5043159;28;20633;-86
2022/11/23 11:25:29;;;;;;;4.83;3.50;;;15.80;99.90;;;;;;5045954;28;20638;-85
2022/11/23 11:27:57;;;;;;;3.77;3.13;;;16.80;47.50;;;;;;5042488;28;20724;-86
2022/11/23 11:30:25;;;;;;;6.23;2.67;;;16.10;16.50;;;;;;5038570;28;20638;-85
2022/11/23 11:33:03;;;;;;;5.80;2.53;;;16.00;46.00;;;;;;5046345;28;20965;-85
2022/11/23 11:35:34;;;;;;;5.17;3.30;;;15.30;82.90;;;;;;5040680;28;21161;-86
2022/11/23 11:38:06;;;;;;;4.27;2.60;;;15.70;52.30;;;;;;5037772;28;20666;-85
2022/11/23 11:40:37;;;;;;;6.53;3.27;;;14.60;91.70;;;;;;5045894;28;21031;-86
2022/11/23 11:43:09;;;;;;;3.17;2.87;;;17.30;46.60;;;;;;5045325;28;20661;-85
2022/11/23 11:45:40;;;;;;;6.43;3.40;;;18.30;12.40;;;;;;5032955;28;20649;-85
2022/11/23 11:48:13;;;;;;;5.27;2.63;;;17.00;2.80;;;;;;5045825;28;20646;-86
2022/11/23 11:50:48;;;;;;;4.40;3.20;;;17.90;1.00;;;;;;5043598;28;20665;-86
2022/11/23 11:53:22;;;;;;;4.60;3.17;;;19.00;1.00;;;;;;5050933;28;21198;-86
2022/11/23 11:55:55;;;;;;;3.20;2.60;;;17.30;1.00;;;;;;5051525;28;20636;-86
2022/11/23 11:58:24;;;;;;;1.70;1.60;;;16.60;1.00;;;;;;5043230;28;20636;-86
2022/11/23 12:00:58;;;;;;;12.10;2.40;;;16.30;1.00;;;;;;5050113;28;20670;-86
2022/11/23 12:03:39;;;;;;;4.30;2.00;;;16.50;1.00;;;;;;5048199;28;20649;-86
2022/11/23 12:06:13;;;;;;;4.63;2.47;;;19.70;1.00;;;;;;5048543;28;20634;-87
2022/11/23 12:08:47;;;;;;;6.30;2.50;;;19.70;1.00;;;;;;5041258;28;20650;-87
2022/11/23 12:11:16;;;;;;;2.97;2.30;;;18.90;1.00;;;;;;5038052;28;20649;-86
2022/11/23 12:14:00;;;;;;;2.57;2.03;;;16.30;1.00;;;;;;5057727;28;20751;-86
2022/11/23 12:16:33;;;;;;;2.97;1.80;;;15.80;1.00;;;;;;5064103;28;20642;-86
2022/11/23 12:19:18;;;;;;;5.03;1.70;;;17.60;1.00;;;;;;5059829;28;20640;-89
2022/11/23 12:22:20;;;;;;;2.43;1.67;;;16.20;1.00;;;;;;5062887;28;20649;-87
2022/11/23 12:25:03;;;;;;;2.10;1.50;;;17.00;1.00;;;;;;5014133;28;21188;-86
2022/11/23 12:27:43;;;;;;;2.70;1.63;;;17.40;1.00;;;;;;5050365;28;21356;-85
2022/11/23 12:30:24;;;;;;;1.90;1.40;;;17.10;1.00;;;;;;5046918;28;20617;-85
2022/11/23 12:33:32;;;;;;;1.53;1.43;;;16.50;1.00;;;;;;5058494;28;20657;-85
2022/11/23 12:36:15;;;;;;;1.77;1.40;;;15.10;1.00;;;;;;5043940;28;21060;-86
2022/11/23 12:39:01;;;;;;;2.33;1.30;;;15.80;1.00;;;;;;5041885;28;20652;-85
2022/11/23 12:41:39;;;;;;;1.93;1.00;;;16.40;1.00;;;;;;5046616;28;20641;-86
2022/11/23 12:44:46;;;;;;;2.03;1.00;;;16.60;1.00;;;;;;5047564;28;20629;-86
2022/11/23 12:47:26;;;;;;;0.93;0.80;;;17.60;1.00;;;;;;5026474;28;21004;-86
2022/11/23 12:50:00;;;;;;;1.27;0.80;;;16.90;1.00;;;;;;5045444;28;20646;-86
2022/11/23 12:52:42;;;;;;;1.60;0.83;;;15.40;1.00;;;;;;5045359;28;20626;-86
2022/11/23 12:55:18;;;;;;;1.83;1.73;;;14.20;1.00;;;;;;5035872;28;20641;-86
2022/11/23 12:57:52;;;;;;;1.73;1.27;;;16.80;1.00;;;;;;5038897;28;20619;-87
2022/11/23 13:00:20;;;;;;;1.83;1.27;;;16.00;1.00;;;;;;5043974;28;20677;-86
2022/11/23 13:03:23;;;;;;;1.13;0.97;;;15.40;1.00;;;;;;5044690;28;20645;-86
2022/11/23 13:06:25;;;;;;;2.17;1.53;;;15.70;1.00;;;;;;5037609;28;20933;-87
2022/11/23 13:09:18;;;;;;;1.80;1.00;;;17.00;1.00;;;;;;5025122;28;20692;-87
2022/11/23 13:12:02;;;;;;;3.33;1.03;;;17.50;1.00;;;;;;5044665;28;20630;-88